Portada
METAR-TAF:

METAR-TAF

Aeropuertos :

Aeropuerto de Reus

Reus, España

latitud: 41-09N, longitud: 001-10E, altitud: 71 m

Observación

El informe se hizo hace 19 minutos, a las 05:00 UTC
Viento 6 kt del norte
Temperatura 15°C
Humedad 88%
Presión 1012 hPa
Visibilidad 10 km o más
Escasas nubes a una altura de 5000 ft

METAR: LERS 210500Z 36006KT 9999 FEW050 15/13 Q1012

Hora: 07:19 (05:19 UTC)

Pronóstico

El informe se hizo hace 3 horas y 19 minutos, a las 02:00 UTC
Pronóstico válido del 21 a las 03 UTC al 22 a las 03 UTC
Viento 3 kt con dirección variable
Visibilidad 10 km o más
Escasas nubes a una altura de 4000 ft
Evolucionando progresivamente
del 21 a las 10 UTC al 21 a las 12 UTC
Viento 10 kt del sur-sureste
Evolucionando progresivamente
del 21 a las 18 UTC al 21 a las 20 UTC
Viento 3 kt con dirección variable

TAF: LERS 210200Z 2103/2203 VRB03KT 9999 FEW040 TX23/2113Z TN14/2106Z BECMG 2110/2112 16010KT BECMG 2118/2120 VRB03KT

Observaciones y pronósticos meteorológicos de más de 4000 aeropuertos (mensajes METAR y TAF).

Los puntos amarillos y rojos representan las estaciones disponibles.

Ponga el ratón en el punto deseado para ver el nombre de la estación.

Haga clic para ver las observaciones y los pronósticos meteorológicos.

Para cambiar el mapa : haga clic en los botones verdes con una cruz de color negro para hacer un zoom, en el botón verde con un guión para alejar o en las flechas verdes para mapas adyacentes.


METAR-TAF: